createdAt,value
2023-03-12T00:00:56.974Z,-0.70
2023-03-12T00:03:28.637Z,-0.70
2023-03-12T00:06:10.295Z,-0.70
2023-03-12T00:08:42.728Z,-0.70
2023-03-12T00:11:17.502Z,-0.70
2023-03-12T00:13:51.297Z,-0.70
2023-03-12T00:16:24.051Z,-0.70
2023-03-12T00:18:56.138Z,-0.70
2023-03-12T00:21:28.032Z,-0.70
2023-03-12T00:23:59.822Z,-0.70
2023-03-12T00:26:31.652Z,-0.70
2023-03-12T00:29:03.738Z,-0.70
2023-03-12T00:31:35.490Z,-0.70
2023-03-12T00:34:07.232Z,-0.70
2023-03-12T00:36:40.697Z,-0.80
2023-03-12T00:39:12.505Z,-0.90
2023-03-12T00:41:44.208Z,-0.90
2023-03-12T00:44:15.965Z,-0.90
2023-03-12T00:46:47.756Z,-0.90
2023-03-12T00:49:19.632Z,-1.00
2023-03-12T00:51:51.557Z,-0.90
2023-03-12T00:54:23.298Z,-1.00
2023-03-12T00:56:55.012Z,-1.00
2023-03-12T00:59:26.717Z,-0.90
2023-03-12T01:01:58.393Z,-1.00
2023-03-12T01:04:30.124Z,-0.90
2023-03-12T01:07:01.837Z,-0.90
2023-03-12T01:09:33.523Z,-0.90
2023-03-12T01:12:05.556Z,-0.90
2023-03-12T01:14:37.298Z,-0.90
2023-03-12T01:17:09.108Z,-0.80
2023-03-12T01:19:40.856Z,-0.80
2023-03-12T01:22:12.611Z,-0.70
2023-03-12T01:24:44.272Z,-0.60
2023-03-12T01:27:16.009Z,-0.50
2023-03-12T01:29:47.908Z,-0.40
2023-03-12T01:32:20.232Z,-0.40
2023-03-12T01:34:51.989Z,-0.40
2023-03-12T01:37:23.962Z,-0.40
2023-03-12T01:39:55.667Z,-0.40
2023-03-12T01:42:27.506Z,-0.40
2023-03-12T01:45:02.241Z,-0.30
2023-03-12T01:47:34.062Z,-0.30
2023-03-12T01:50:06.012Z,-0.30
2023-03-12T01:52:39.275Z,-0.30
2023-03-12T01:55:14.766Z,-0.20
2023-03-12T01:57:55.113Z,-0.20
2023-03-12T02:00:27.914Z,-0.20
2023-03-12T02:03:04.559Z,-0.20
2023-03-12T02:05:48.299Z,-0.20
2023-03-12T02:08:20.657Z,-0.10
2023-03-12T02:10:52.351Z,0.00
2023-03-12T02:13:24.105Z,0.00
2023-03-12T02:15:55.897Z,0.00
2023-03-12T02:18:28.518Z,0.00
2023-03-12T02:21:21.883Z,0.10
2023-03-12T02:24:06.931Z,0.20
2023-03-12T02:26:39.796Z,0.20
2023-03-12T02:29:12.606Z,0.30
2023-03-12T02:31:50.399Z,0.20
2023-03-12T02:34:22.428Z,0.20
2023-03-12T02:36:54.121Z,0.20
2023-03-12T02:39:25.849Z,0.20
2023-03-12T02:41:59.669Z,0.20
2023-03-12T02:44:37.887Z,0.30
2023-03-12T02:47:09.718Z,0.30
2023-03-12T02:49:41.515Z,0.40
2023-03-12T02:52:13.239Z,0.40
2023-03-12T02:54:44.980Z,0.40
2023-03-12T02:57:16.830Z,0.40
2023-03-12T02:59:48.520Z,0.40
2023-03-12T03:02:20.257Z,0.30
2023-03-12T03:04:52.110Z,0.30
2023-03-12T03:07:23.776Z,0.30
2023-03-12T03:09:55.586Z,0.30
2023-03-12T03:12:27.290Z,0.40
2023-03-12T03:14:59.155Z,0.40
2023-03-12T03:17:30.933Z,0.40
2023-03-12T03:20:05.816Z,0.40
2023-03-12T03:22:38.565Z,0.50
2023-03-12T03:25:11.009Z,0.50
2023-03-12T03:27:42.764Z,0.40
2023-03-12T03:30:14.623Z,0.40
2023-03-12T03:32:46.421Z,0.30
2023-03-12T03:35:18.615Z,0.30
2023-03-12T03:37:50.377Z,0.20
2023-03-12T03:40:22.081Z,0.20
2023-03-12T03:42:53.989Z,0.20
2023-03-12T03:45:25.926Z,0.20
2023-03-12T03:47:57.681Z,0.20
2023-03-12T03:50:29.498Z,0.30
2023-03-12T03:53:01.252Z,0.30
2023-03-12T03:55:37.089Z,0.30
2023-03-12T03:58:08.784Z,0.40
2023-03-12T04:00:40.556Z,0.50
2023-03-12T04:03:13.349Z,0.50
2023-03-12T04:05:45.340Z,0.60
2023-03-12T04:08:17.141Z,0.60
2023-03-12T04:10:48.838Z,0.70
2023-03-12T04:13:20.932Z,0.70
2023-03-12T04:15:53.640Z,0.70
2023-03-12T04:18:25.465Z,0.70
2023-03-12T04:20:57.184Z,0.70
2023-03-12T04:23:28.992Z,0.80
2023-03-12T04:26:01.022Z,1.00
2023-03-12T04:28:33.583Z,1.10
2023-03-12T04:31:07.523Z,1.30
2023-03-12T04:33:40.754Z,1.30
2023-03-12T04:36:14.580Z,1.30
2023-03-12T04:38:46.446Z,1.40
2023-03-12T04:41:18.596Z,1.50
2023-03-12T04:43:50.279Z,1.50
2023-03-12T04:46:22.278Z,1.60
2023-03-12T04:48:54.072Z,1.60
2023-03-12T04:51:25.806Z,1.50
2023-03-12T04:53:58.295Z,1.50
2023-03-12T04:56:30.169Z,1.50
2023-03-12T04:59:01.958Z,1.40
2023-03-12T05:01:36.470Z,1.40
2023-03-12T05:04:08.284Z,1.40
2023-03-12T05:06:40.071Z,1.40
2023-03-12T05:09:11.796Z,1.50
2023-03-12T05:11:43.574Z,1.50
2023-03-12T05:14:15.501Z,1.60
2023-03-12T05:16:47.415Z,1.60
2023-03-12T05:19:19.127Z,1.60
2023-03-12T05:21:50.972Z,1.60
2023-03-12T05:24:22.811Z,1.70
2023-03-12T05:26:54.660Z,1.70
2023-03-12T05:29:26.489Z,1.70
2023-03-12T05:31:58.178Z,1.70
2023-03-12T05:34:31.368Z,1.70
2023-03-12T05:37:03.197Z,1.80
2023-03-12T05:39:35.063Z,1.80
2023-03-12T05:42:07.003Z,1.80
2023-03-12T05:44:38.923Z,1.80
2023-03-12T05:47:10.783Z,1.80
2023-03-12T05:49:42.614Z,1.90
2023-03-12T05:52:14.426Z,1.90
2023-03-12T05:54:46.148Z,1.90
2023-03-12T05:57:17.902Z,1.90
2023-03-12T05:59:49.624Z,2.00
2023-03-12T06:02:21.378Z,2.00
2023-03-12T06:04:53.087Z,2.10
2023-03-12T06:07:25.077Z,2.10
2023-03-12T06:09:57.131Z,2.30
2023-03-12T06:12:28.825Z,2.30
2023-03-12T06:15:00.617Z,2.20
2023-03-12T06:17:32.422Z,2.20
2023-03-12T06:20:04.645Z,2.30
2023-03-12T06:22:37.027Z,2.20
2023-03-12T06:25:09.273Z,2.20
2023-03-12T06:27:41.167Z,2.20
2023-03-12T06:30:13.463Z,2.10
2023-03-12T06:32:45.238Z,2.10
2023-03-12T06:35:17.058Z,2.10
2023-03-12T06:37:48.855Z,2.00
2023-03-12T06:40:20.542Z,1.90
2023-03-12T06:42:52.325Z,1.90
2023-03-12T06:45:23.992Z,1.90
2023-03-12T06:47:55.740Z,1.90
2023-03-12T06:50:27.513Z,1.90
2023-03-12T06:52:59.246Z,1.90
2023-03-12T06:55:31.049Z,2.00
2023-03-12T06:58:04.005Z,2.10
2023-03-12T07:00:36.880Z,2.10
2023-03-12T07:03:08.749Z,2.20
2023-03-12T07:05:43.258Z,2.20
2023-03-12T07:08:16.152Z,2.30
2023-03-12T07:10:47.800Z,2.30
2023-03-12T07:13:19.483Z,2.40
2023-03-12T07:15:51.250Z,2.40
2023-03-12T07:18:23.003Z,2.40
2023-03-12T07:20:55.246Z,2.40
2023-03-12T07:23:27.296Z,2.50
2023-03-12T07:25:58.964Z,2.50
2023-03-12T07:28:30.781Z,2.60
2023-03-12T07:31:04.373Z,2.60
2023-03-12T07:33:36.557Z,2.60
2023-03-12T07:36:08.857Z,2.60
2023-03-12T07:38:40.584Z,2.70
2023-03-12T07:41:12.417Z,2.80
2023-03-12T07:43:44.486Z,2.80
2023-03-12T07:46:16.224Z,2.80
2023-03-12T07:48:48.620Z,2.90
2023-03-12T07:51:20.446Z,2.90
2023-03-12T07:53:52.322Z,3.00
2023-03-12T07:56:24.245Z,3.20
2023-03-12T07:58:56.191Z,3.30
2023-03-12T08:01:32.361Z,3.50
2023-03-12T08:04:04.306Z,3.60
2023-03-12T08:06:37.709Z,3.70
2023-03-12T08:09:09.962Z,3.80
2023-03-12T08:11:42.370Z,4.00
2023-03-12T08:14:14.257Z,4.20
2023-03-12T08:16:46.684Z,4.40
2023-03-12T08:19:18.482Z,4.50
2023-03-12T08:21:50.999Z,4.50
2023-03-12T08:24:22.754Z,4.50
2023-03-12T08:26:54.410Z,4.50
2023-03-12T08:29:26.376Z,4.50
2023-03-12T08:32:04.870Z,4.50
2023-03-12T08:34:37.706Z,4.50
2023-03-12T08:37:09.468Z,4.50
2023-03-12T08:39:41.557Z,4.50
2023-03-12T08:42:13.246Z,4.60
2023-03-12T08:44:45.020Z,4.70
2023-03-12T08:47:16.749Z,4.90
2023-03-12T08:49:48.535Z,5.20
2023-03-12T08:52:20.308Z,5.20
2023-03-12T08:54:52.132Z,5.10
2023-03-12T08:57:23.869Z,5.10
2023-03-12T08:59:55.677Z,5.10
2023-03-12T09:02:28.593Z,5.00
2023-03-12T09:05:00.359Z,4.90
2023-03-12T09:07:32.385Z,4.90
2023-03-12T09:10:05.354Z,5.00
2023-03-12T09:12:37.168Z,5.20
2023-03-12T09:15:09.879Z,5.30
2023-03-12T09:17:41.666Z,5.40
2023-03-12T09:20:14.210Z,5.50
2023-03-12T09:22:46.178Z,5.70
2023-03-12T09:25:18.650Z,5.90
2023-03-12T09:27:50.690Z,5.90
2023-03-12T09:30:25.105Z,6.10
2023-03-12T09:32:57.071Z,6.20
2023-03-12T09:35:28.865Z,6.40
2023-03-12T09:38:00.774Z,6.40
2023-03-12T09:40:37.242Z,6.50
2023-03-12T09:43:20.815Z,6.50
2023-03-12T09:45:54.242Z,6.40
2023-03-12T09:48:32.337Z,6.40
2023-03-12T09:51:29.538Z,6.50
2023-03-12T09:54:06.865Z,6.60
2023-03-12T09:56:39.001Z,6.70
2023-03-12T09:59:12.777Z,7.00
2023-03-12T10:01:52.408Z,7.30
2023-03-12T10:04:58.899Z,7.40
2023-03-12T10:07:40.506Z,7.40
2023-03-12T10:10:27.636Z,7.60
2023-03-12T10:13:25.603Z,7.90
2023-03-12T10:16:22.054Z,8.30
2023-03-12T10:19:06.649Z,8.60
2023-03-12T10:21:46.449Z,8.70
2023-03-12T10:24:25.058Z,8.60
2023-03-12T10:26:58.774Z,8.60
2023-03-12T10:29:34.395Z,8.60
2023-03-12T10:32:10.710Z,8.60
2023-03-12T10:34:56.188Z,8.70
2023-03-12T10:37:54.355Z,8.90
2023-03-12T10:40:29.486Z,9.10
2023-03-12T10:43:02.372Z,9.30
2023-03-12T10:45:44.826Z,9.70
2023-03-12T10:48:22.796Z,9.90
2023-03-12T10:51:06.416Z,10.20
2023-03-12T10:53:48.071Z,10.60
2023-03-12T10:56:21.051Z,11.10
2023-03-12T10:58:54.089Z,11.80
2023-03-12T11:01:31.050Z,12.40
2023-03-12T11:04:30.970Z,12.70
2023-03-12T11:07:06.762Z,13.70
2023-03-12T11:09:39.091Z,14.00
2023-03-12T11:12:31.582Z,13.70
2023-03-12T11:15:20.520Z,13.40
2023-03-12T11:17:52.806Z,13.50
2023-03-12T11:20:27.315Z,13.40
2023-03-12T11:23:17.133Z,12.60
2023-03-12T11:26:03.157Z,12.90
2023-03-12T11:28:42.621Z,13.20
2023-03-12T11:31:39.315Z,13.80
2023-03-12T11:34:22.425Z,13.50
2023-03-12T11:37:20.332Z,12.90
2023-03-12T11:40:13.965Z,12.30
2023-03-12T11:42:53.490Z,12.20
2023-03-12T11:45:40.217Z,12.00
2023-03-12T11:48:29.206Z,11.70
2023-03-12T11:51:31.150Z,11.50
2023-03-12T11:54:15.007Z,11.60
2023-03-12T11:56:55.473Z,11.80
2023-03-12T11:59:45.791Z,12.00
2023-03-12T12:02:44.580Z,12.30
2023-03-12T12:05:37.600Z,12.30
2023-03-12T12:08:48.479Z,12.40
2023-03-12T12:11:32.712Z,12.40
2023-03-12T12:14:39.204Z,12.30
2023-03-12T12:17:33.869Z,12.20
2023-03-12T12:20:17.613Z,12.10
2023-03-12T12:23:04.384Z,11.80
2023-03-12T12:26:07.407Z,11.60
2023-03-12T12:28:58.666Z,11.80
2023-03-12T12:31:44.753Z,11.80
2023-03-12T12:34:53.474Z,11.80
2023-03-12T12:37:51.910Z,12.00
2023-03-12T12:40:30.848Z,12.00
2023-03-12T12:43:17.702Z,12.30
2023-03-12T12:45:52.760Z,12.20
2023-03-12T12:48:36.663Z,12.10
2023-03-12T12:51:09.346Z,12.10
2023-03-12T12:53:51.072Z,12.10
2023-03-12T12:56:25.573Z,11.80
2023-03-12T12:59:23.301Z,11.70
2023-03-12T13:01:57.083Z,11.70
2023-03-12T13:04:34.681Z,11.70
2023-03-12T13:07:12.194Z,11.70
2023-03-12T13:09:46.193Z,11.50
2023-03-12T13:12:42.424Z,11.50
2023-03-12T13:15:43.602Z,11.70
2023-03-12T13:18:31.461Z,11.90
2023-03-12T13:21:22.330Z,12.20
2023-03-12T13:24:18.234Z,12.00
2023-03-12T13:27:11.239Z,11.80
2023-03-12T13:29:43.137Z,11.60
2023-03-12T13:32:38.482Z,11.50
2023-03-12T13:35:16.106Z,11.40
2023-03-12T13:38:01.729Z,11.50
2023-03-12T13:40:35.760Z,11.60
2023-03-12T13:43:11.512Z,11.60
2023-03-12T13:46:07.088Z,11.60
2023-03-12T13:48:46.193Z,11.70
2023-03-12T13:51:21.744Z,11.70
2023-03-12T13:53:57.876Z,11.70
2023-03-12T13:56:34.009Z,11.80
2023-03-12T13:59:17.869Z,11.70
2023-03-12T14:01:54.010Z,11.70
2023-03-12T14:04:41.773Z,11.60
2023-03-12T14:07:49.619Z,11.50
2023-03-12T14:10:47.077Z,11.50
2023-03-12T14:13:56.332Z,11.50
2023-03-12T14:16:33.877Z,11.40
2023-03-12T14:19:06.642Z,11.40
2023-03-12T14:21:40.906Z,11.40
2023-03-12T14:24:26.157Z,11.50
2023-03-12T14:26:58.596Z,11.50
2023-03-12T14:29:43.304Z,11.50
2023-03-12T14:32:22.479Z,11.50
2023-03-12T14:34:59.823Z,11.50
2023-03-12T14:38:01.102Z,11.70
2023-03-12T14:40:44.573Z,11.80
2023-03-12T14:43:35.094Z,12.00
2023-03-12T14:46:23.717Z,12.00
2023-03-12T14:48:55.520Z,11.80
2023-03-12T14:51:30.522Z,11.70
2023-03-12T14:54:03.460Z,11.70
2023-03-12T14:56:35.923Z,11.80
2023-03-12T14:59:40.115Z,11.90
2023-03-12T15:02:14.678Z,11.90
2023-03-12T15:04:48.802Z,11.90
2023-03-12T15:07:25.834Z,11.80
2023-03-12T15:09:58.281Z,11.80
2023-03-12T15:12:34.883Z,11.70
2023-03-12T15:15:10.769Z,11.70
2023-03-12T15:17:42.656Z,11.50
2023-03-12T15:20:16.473Z,11.60
2023-03-12T15:22:49.066Z,11.70
2023-03-12T15:25:25.557Z,11.70
2023-03-12T15:28:05.602Z,11.70
2023-03-12T15:30:39.347Z,11.60
2023-03-12T15:33:17.715Z,11.60
2023-03-12T15:36:03.074Z,11.50
2023-03-12T15:38:38.281Z,11.50
2023-03-12T15:41:18.329Z,11.50
2023-03-12T15:43:56.297Z,11.50
2023-03-12T15:46:28.677Z,11.50
2023-03-12T15:49:00.994Z,11.50
2023-03-12T15:51:35.905Z,11.40
2023-03-12T15:54:13.758Z,11.50
2023-03-12T15:56:45.557Z,11.40
2023-03-12T15:59:17.195Z,11.40
2023-03-12T16:01:50.806Z,11.30
2023-03-12T16:04:23.826Z,11.20
2023-03-12T16:06:55.671Z,11.20
2023-03-12T16:09:29.223Z,11.10
2023-03-12T16:12:01.216Z,11.10
2023-03-12T16:14:36.241Z,11.10
2023-03-12T16:17:14.432Z,11.20
2023-03-12T16:19:46.087Z,11.10
2023-03-12T16:22:20.132Z,11.10
2023-03-12T16:24:51.945Z,11.00
2023-03-12T16:27:32.304Z,11.00
2023-03-12T16:30:14.553Z,10.90
2023-03-12T16:32:46.345Z,10.90
2023-03-12T16:35:19.956Z,10.80
2023-03-12T16:37:51.686Z,10.80
2023-03-12T16:40:33.356Z,10.70
2023-03-12T16:43:11.119Z,10.70
2023-03-12T16:45:45.335Z,10.60
2023-03-12T16:48:24.072Z,10.60
2023-03-12T16:50:58.744Z,10.60
2023-03-12T16:53:30.715Z,10.60
2023-03-12T16:56:02.550Z,10.50
2023-03-12T16:58:34.360Z,10.50
2023-03-12T17:01:06.039Z,10.50
2023-03-12T17:03:40.325Z,10.50
2023-03-12T17:06:26.402Z,10.40
2023-03-12T17:08:58.736Z,10.30
2023-03-12T17:11:32.943Z,10.30
2023-03-12T17:14:19.708Z,10.30
2023-03-12T17:16:51.815Z,10.20
2023-03-12T17:19:23.502Z,10.20
2023-03-12T17:21:55.533Z,10.20
2023-03-12T17:24:28.229Z,10.10
2023-03-12T17:27:00.589Z,10.10
2023-03-12T17:29:32.480Z,10.10
2023-03-12T17:32:04.221Z,10.00
2023-03-12T17:34:36.131Z,9.90
2023-03-12T17:37:08.009Z,9.90
2023-03-12T17:39:39.869Z,9.80
2023-03-12T17:42:11.642Z,9.80
2023-03-12T17:44:43.434Z,9.70
2023-03-12T17:47:15.186Z,9.60
2023-03-12T17:49:47.056Z,9.60
2023-03-12T17:52:18.875Z,9.60
2023-03-12T17:54:50.923Z,9.60
2023-03-12T17:57:24.863Z,9.50
2023-03-12T17:59:56.734Z,9.50
2023-03-12T18:02:28.617Z,9.50
2023-03-12T18:05:00.374Z,9.40
2023-03-12T18:07:32.170Z,9.40
2023-03-12T18:10:06.481Z,9.40
2023-03-12T18:12:40.055Z,9.30
2023-03-12T18:15:13.855Z,9.20
2023-03-12T18:17:45.657Z,9.20
2023-03-12T18:20:25.891Z,9.20
2023-03-12T18:23:04.044Z,9.10
2023-03-12T18:25:37.406Z,9.00
2023-03-12T18:28:09.103Z,8.80
2023-03-12T18:30:40.836Z,8.60
2023-03-12T18:33:13.252Z,8.40
2023-03-12T18:35:45.682Z,8.30
2023-03-12T18:38:17.408Z,8.10
2023-03-12T18:40:50.386Z,8.00
2023-03-12T18:43:22.179Z,7.90
2023-03-12T18:45:53.897Z,7.80
2023-03-12T18:48:25.693Z,7.80
2023-03-12T18:50:58.178Z,7.80
2023-03-12T18:53:33.018Z,7.80
2023-03-12T18:56:05.094Z,7.90
2023-03-12T18:58:36.799Z,7.90
2023-03-12T19:01:08.595Z,7.80
2023-03-12T19:03:40.348Z,7.70
2023-03-12T19:06:14.759Z,7.60
2023-03-12T19:08:46.513Z,7.50
2023-03-12T19:11:18.284Z,7.30
2023-03-12T19:13:52.211Z,7.30
2023-03-12T19:16:24.010Z,7.20
2023-03-12T19:18:55.963Z,7.10
2023-03-12T19:21:27.772Z,7.00
2023-03-12T19:23:59.420Z,6.90
2023-03-12T19:26:31.142Z,6.90
2023-03-12T19:29:02.920Z,6.80
2023-03-12T19:31:34.827Z,6.80
2023-03-12T19:34:06.609Z,6.80
2023-03-12T19:36:38.351Z,6.80
2023-03-12T19:39:20.424Z,6.70
2023-03-12T19:41:53.017Z,6.60
2023-03-12T19:44:25.239Z,6.60
2023-03-12T19:46:56.873Z,6.60
2023-03-12T19:49:29.760Z,6.50
2023-03-12T19:52:02.136Z,6.50
2023-03-12T19:54:34.020Z,6.50
2023-03-12T19:57:05.717Z,6.50
2023-03-12T19:59:37.406Z,6.40
2023-03-12T20:02:13.079Z,6.40
2023-03-12T20:04:44.804Z,6.40
2023-03-12T20:07:18.350Z,6.30
2023-03-12T20:09:50.369Z,6.40
2023-03-12T20:12:22.108Z,6.40
2023-03-12T20:14:53.813Z,6.40
2023-03-12T20:17:25.566Z,6.50
2023-03-12T20:19:58.121Z,6.60
2023-03-12T20:22:31.040Z,6.60
2023-03-12T20:25:05.322Z,6.50
2023-03-12T20:27:38.530Z,6.50
2023-03-12T20:30:11.145Z,6.50
2023-03-12T20:32:43.026Z,6.40
2023-03-12T20:35:14.888Z,6.40
2023-03-12T20:37:46.555Z,6.40
2023-03-12T20:40:18.464Z,6.30
2023-03-12T20:42:50.115Z,6.30
2023-03-12T20:45:22.149Z,6.30
2023-03-12T20:47:53.973Z,6.30
2023-03-12T20:50:26.841Z,6.30
2023-03-12T20:52:59.605Z,6.20
2023-03-12T20:55:32.025Z,6.20
2023-03-12T20:58:04.103Z,6.20
2023-03-12T21:00:35.784Z,6.20
2023-03-12T21:03:09.332Z,6.10
2023-03-12T21:05:42.701Z,6.10
2023-03-12T21:08:15.214Z,6.10
2023-03-12T21:10:48.444Z,6.10
2023-03-12T21:13:21.997Z,6.10
2023-03-12T21:15:53.728Z,6.10
2023-03-12T21:18:25.656Z,6.10
2023-03-12T21:21:04.946Z,6.10
2023-03-12T21:23:37.853Z,6.10
2023-03-12T21:26:11.903Z,6.10
2023-03-12T21:28:43.620Z,6.10
2023-03-12T21:31:16.897Z,6.10
2023-03-12T21:33:49.389Z,6.00
2023-03-12T21:36:21.285Z,6.00
2023-03-12T21:38:53.188Z,6.00
2023-03-12T21:41:24.876Z,6.00
2023-03-12T21:43:56.519Z,5.90
2023-03-12T21:46:30.066Z,5.90
2023-03-12T21:49:01.816Z,5.90
2023-03-12T21:51:33.591Z,5.80
2023-03-12T21:54:06.568Z,5.80
2023-03-12T21:56:38.448Z,5.80
2023-03-12T21:59:10.613Z,5.80
2023-03-12T22:01:42.455Z,5.70
2023-03-12T22:04:14.215Z,5.70
2023-03-12T22:06:46.005Z,5.70
2023-03-12T22:09:18.042Z,5.70
2023-03-12T22:11:49.775Z,5.60
2023-03-12T22:14:22.989Z,5.60
2023-03-12T22:16:54.764Z,5.60
2023-03-12T22:19:26.584Z,5.60
2023-03-12T22:21:58.307Z,5.60
2023-03-12T22:24:30.680Z,5.70
2023-03-12T22:27:03.339Z,5.70
2023-03-12T22:29:35.369Z,5.60
2023-03-12T22:32:07.176Z,5.60
2023-03-12T22:34:38.975Z,5.60
2023-03-12T22:37:10.676Z,5.60
2023-03-12T22:39:43.212Z,5.50
2023-03-12T22:42:14.906Z,5.50
2023-03-12T22:44:46.688Z,5.50
2023-03-12T22:47:18.421Z,5.40
2023-03-12T22:49:50.165Z,5.40
2023-03-12T22:52:21.846Z,5.40
2023-03-12T22:54:53.521Z,5.40
2023-03-12T22:57:25.348Z,5.40
2023-03-12T22:59:57.058Z,5.30
2023-03-12T23:02:28.986Z,5.40
2023-03-12T23:05:00.737Z,5.30
2023-03-12T23:07:32.604Z,5.40
2023-03-12T23:10:05.211Z,5.40
2023-03-12T23:12:38.462Z,5.40
2023-03-12T23:15:11.766Z,5.40
2023-03-12T23:17:43.572Z,5.40
2023-03-12T23:20:15.331Z,5.30
2023-03-12T23:22:47.201Z,5.30
2023-03-12T23:25:18.915Z,5.30
2023-03-12T23:27:50.782Z,5.30
2023-03-12T23:30:22.682Z,5.30
2023-03-12T23:32:54.460Z,5.30
2023-03-12T23:35:26.330Z,5.40
2023-03-12T23:37:59.121Z,5.40
2023-03-12T23:40:30.908Z,5.40
2023-03-12T23:43:02.618Z,5.40
2023-03-12T23:45:34.332Z,5.40
2023-03-12T23:48:06.085Z,5.40
2023-03-12T23:50:37.978Z,5.40
2023-03-12T23:53:09.720Z,5.40
2023-03-12T23:55:41.502Z,5.40
2023-03-12T23:58:13.173Z,5.40
